createdAt,value
2018-06-05T00:00:58.555Z,22.60
2018-06-05T00:03:26.316Z,22.80
2018-06-05T00:05:54.652Z,22.27
2018-06-05T00:08:22.722Z,24.03
2018-06-05T00:10:51.018Z,23.63
2018-06-05T00:13:19.695Z,23.90
2018-06-05T00:15:47.479Z,24.43
2018-06-05T00:18:15.272Z,23.63
2018-06-05T00:20:43.799Z,24.00
2018-06-05T00:23:11.683Z,25.33
2018-06-05T00:25:39.587Z,23.90
2018-06-05T00:28:07.367Z,25.13
2018-06-05T00:30:35.462Z,23.53
2018-06-05T00:33:04.505Z,25.27
2018-06-05T00:35:33.215Z,24.30
2018-06-05T00:38:01.582Z,25.57
2018-06-05T00:40:29.505Z,25.73
2018-06-05T00:42:57.269Z,26.67
2018-06-05T00:45:25.054Z,26.03
2018-06-05T00:47:52.844Z,27.40
2018-06-05T00:50:20.617Z,26.77
2018-06-05T00:52:48.501Z,26.73
2018-06-05T00:55:16.383Z,26.83
2018-06-05T00:57:44.467Z,26.73
2018-06-05T01:00:12.273Z,28.17
2018-06-05T01:02:40.094Z,25.83
2018-06-05T01:05:08.509Z,27.00
2018-06-05T01:07:37.735Z,28.13
2018-06-05T01:10:05.614Z,27.33
2018-06-05T01:12:33.426Z,27.00
2018-06-05T01:15:01.245Z,28.03
2018-06-05T01:17:29.038Z,27.30
2018-06-05T01:19:57.738Z,27.60
2018-06-05T01:22:25.753Z,25.53
2018-06-05T01:24:53.598Z,26.20
2018-06-05T01:27:21.645Z,26.87
2018-06-05T01:29:49.427Z,26.57
2018-06-05T01:32:17.235Z,26.53
2018-06-05T01:34:45.052Z,25.73
2018-06-05T01:37:12.839Z,26.23
2018-06-05T01:39:41.968Z,24.57
2018-06-05T01:42:09.781Z,26.03
2018-06-05T01:44:37.691Z,25.57
2018-06-05T01:47:06.044Z,26.53
2018-06-05T01:49:40.043Z,26.73
2018-06-05T01:52:08.157Z,26.10
2018-06-05T01:54:36.168Z,25.27
2018-06-05T01:57:04.054Z,27.37
2018-06-05T01:59:32.560Z,26.77
2018-06-05T02:02:00.484Z,27.40
2018-06-05T02:04:28.398Z,26.33
2018-06-05T02:06:57.202Z,25.80
2018-06-05T02:09:25.247Z,28.23
2018-06-05T02:11:53.203Z,26.70
2018-06-05T02:14:21.031Z,26.77
2018-06-05T02:16:48.835Z,27.47
2018-06-05T02:19:17.445Z,26.70
2018-06-05T02:21:45.577Z,28.47
2018-06-05T02:24:14.065Z,27.00
2018-06-05T02:26:43.071Z,26.87
2018-06-05T02:29:11.243Z,26.43
2018-06-05T02:31:39.040Z,27.33
2018-06-05T02:34:07.301Z,27.90
2018-06-05T02:36:35.180Z,28.53
2018-06-05T02:39:04.199Z,28.33
2018-06-05T02:41:33.032Z,28.53
2018-06-05T02:44:01.128Z,28.17
2018-06-05T02:46:29.478Z,28.37
2018-06-05T02:48:57.286Z,29.23
2018-06-05T02:51:25.237Z,27.67
2018-06-05T02:53:53.098Z,27.80
2018-06-05T02:56:21.049Z,28.67
2018-06-05T02:58:49.517Z,28.17
2018-06-05T03:01:17.437Z,28.70
2018-06-05T03:03:46.132Z,27.70
2018-06-05T03:06:13.953Z,28.83
2018-06-05T03:08:41.923Z,27.80
2018-06-05T03:11:10.063Z,28.97
2018-06-05T03:13:37.900Z,26.87
2018-06-05T03:16:05.753Z,26.87
2018-06-05T03:18:33.567Z,29.00
2018-06-05T03:21:01.502Z,28.87
2018-06-05T03:23:29.343Z,27.60
2018-06-05T03:25:57.857Z,30.03
2018-06-05T03:28:25.650Z,27.50
2018-06-05T03:30:54.131Z,26.30
2018-06-05T03:33:21.830Z,27.23
2018-06-05T03:35:49.567Z,28.30
2018-06-05T03:38:17.698Z,25.80
2018-06-05T03:40:45.788Z,27.77
2018-06-05T03:45:48.265Z,26.87
2018-06-05T03:48:16.587Z,25.50
2018-06-05T03:50:44.738Z,26.37
2018-06-05T03:53:13.508Z,34.97
2018-06-05T03:55:41.408Z,25.60
2018-06-05T03:58:09.189Z,24.67
2018-06-05T04:00:36.981Z,23.13
2018-06-05T04:12:49.886Z,26.17
2018-06-05T04:15:18.278Z,29.60
2018-06-05T04:17:46.198Z,24.00
2018-06-05T04:20:14.087Z,22.27
2018-06-05T04:22:42.820Z,25.37
2018-06-05T04:34:56.000Z,23.67
2018-06-05T04:37:23.869Z,23.60
2018-06-05T04:39:51.884Z,25.07
2018-06-05T04:42:19.729Z,22.33
2018-06-05T04:44:48.561Z,22.13
2018-06-05T04:47:16.402Z,22.17
2018-06-05T04:49:44.183Z,23.10
2018-06-05T04:52:11.891Z,22.53
2018-06-05T04:54:39.647Z,24.83
2018-06-05T04:57:07.379Z,25.73
2018-06-05T04:59:35.110Z,24.53
2018-06-05T05:02:02.854Z,24.70
2018-06-05T05:04:30.613Z,25.27
2018-06-05T05:06:58.312Z,23.23
2018-06-05T05:09:26.025Z,25.97
2018-06-05T05:11:53.755Z,27.77
2018-06-05T05:14:21.480Z,24.03
2018-06-05T05:16:49.264Z,23.67
2018-06-05T05:19:16.968Z,24.73
2018-06-05T05:21:44.676Z,23.70
2018-06-05T05:24:12.348Z,25.97
2018-06-05T05:26:40.156Z,24.60
2018-06-05T05:29:07.726Z,25.00
2018-06-05T05:31:35.486Z,25.27
2018-06-05T05:34:04.064Z,25.10
2018-06-05T05:36:31.808Z,25.30
2018-06-05T05:38:59.558Z,25.80
2018-06-05T05:41:27.443Z,24.80
2018-06-05T05:43:55.230Z,25.33
2018-06-05T05:46:22.770Z,25.60
2018-06-05T05:48:50.451Z,26.67
2018-06-05T05:51:18.151Z,28.40
2018-06-05T05:53:45.813Z,28.17
2018-06-05T05:56:13.498Z,26.50
2018-06-05T05:58:41.242Z,24.47
2018-06-05T06:01:09.686Z,25.13
2018-06-05T06:03:37.354Z,26.33
2018-06-05T06:06:05.046Z,26.40
2018-06-05T06:08:32.699Z,26.63
2018-06-05T06:11:00.391Z,25.37
2018-06-05T06:13:28.047Z,25.07
2018-06-05T06:15:55.760Z,24.57
2018-06-05T06:18:23.461Z,26.53
2018-06-05T06:20:51.114Z,23.90
2018-06-05T06:23:18.769Z,24.40
2018-06-05T06:25:46.510Z,25.20
2018-06-05T06:28:14.190Z,27.63
2018-06-05T06:30:41.892Z,25.67
2018-06-05T06:33:09.607Z,24.50
2018-06-05T06:35:37.238Z,23.83
2018-06-05T06:38:04.898Z,21.33
2018-06-05T06:40:32.602Z,22.93
2018-06-05T06:43:00.316Z,23.67
2018-06-05T06:45:31.297Z,21.77
2018-06-05T06:47:58.990Z,29.63
2018-06-05T06:50:26.661Z,27.07
2018-06-05T06:52:54.364Z,27.90
2018-06-05T06:55:22.048Z,25.97
2018-06-05T06:57:49.715Z,27.57
2018-06-05T07:00:17.368Z,28.13
2018-06-05T07:02:45.051Z,25.63
2018-06-05T07:05:12.807Z,26.50
2018-06-05T07:07:40.470Z,26.33
2018-06-05T07:10:08.150Z,31.97
2018-06-05T07:12:35.831Z,25.47
2018-06-05T07:15:03.551Z,30.83
2018-06-05T07:17:31.221Z,32.63
2018-06-05T07:19:58.861Z,32.07
2018-06-05T07:22:26.427Z,34.40
2018-06-05T07:24:54.074Z,33.00
2018-06-05T07:27:22.818Z,39.67
2018-06-05T07:29:50.536Z,30.47
2018-06-05T07:32:18.085Z,33.37
2018-06-05T07:34:45.745Z,30.40
2018-06-05T07:37:13.435Z,30.40
2018-06-05T07:39:41.074Z,28.87
2018-06-05T07:42:08.727Z,28.60
2018-06-05T07:44:36.406Z,26.33
2018-06-05T07:47:04.339Z,27.60
2018-06-05T07:49:32.001Z,29.83
2018-06-05T07:51:59.695Z,27.37
2018-06-05T07:54:27.387Z,29.80
2018-06-05T07:57:57.795Z,29.07
2018-06-05T08:00:25.459Z,29.40
2018-06-05T08:02:53.105Z,28.70
2018-06-05T08:05:20.771Z,29.53
2018-06-05T08:07:48.425Z,29.40
2018-06-05T08:10:16.099Z,26.57
2018-06-05T08:12:43.754Z,28.07
2018-06-05T08:15:11.436Z,30.07
2018-06-05T08:17:39.123Z,30.87
2018-06-05T08:20:06.846Z,27.47
2018-06-05T08:23:05.568Z,27.00
2018-06-05T08:25:33.239Z,28.77
2018-06-05T08:28:00.892Z,26.70
2018-06-05T08:30:28.559Z,27.70
2018-06-05T08:32:56.205Z,25.57
2018-06-05T08:35:23.740Z,28.57
2018-06-05T08:37:51.289Z,26.80
2018-06-05T08:40:18.944Z,28.57
2018-06-05T08:42:46.588Z,25.17
2018-06-05T08:45:14.303Z,31.17
2018-06-05T08:47:41.939Z,27.97
2018-06-05T08:50:09.620Z,26.83
2018-06-05T08:52:37.280Z,25.23
2018-06-05T08:55:05.158Z,27.23
2018-06-05T08:57:32.811Z,26.87
2018-06-05T09:00:00.622Z,26.27
2018-06-05T09:02:28.248Z,27.37
2018-06-05T09:04:55.893Z,25.73
2018-06-05T09:07:23.558Z,25.27
2018-06-05T09:09:51.236Z,26.00
2018-06-05T09:12:18.882Z,25.57
2018-06-05T09:14:46.543Z,28.30
2018-06-05T09:17:14.199Z,24.47
2018-06-05T09:19:41.891Z,25.50
2018-06-05T09:22:09.551Z,23.67
2018-06-05T09:24:37.202Z,25.57
2018-06-05T09:27:04.861Z,29.87
2018-06-05T09:29:32.528Z,23.53
2018-06-05T09:32:00.188Z,20.40
2018-06-05T09:34:27.862Z,26.43
2018-06-05T09:36:55.522Z,22.03
2018-06-05T09:39:23.184Z,19.93
2018-06-05T09:41:50.840Z,20.57
2018-06-05T09:44:18.629Z,20.50
2018-06-05T09:46:46.358Z,20.27
2018-06-05T09:49:14.014Z,18.90
2018-06-05T09:51:41.699Z,18.47
2018-06-05T09:54:09.352Z,17.97
2018-06-05T09:56:37.064Z,20.30
2018-06-05T09:59:04.806Z,21.00
2018-06-05T10:01:32.481Z,23.50
2018-06-05T10:04:00.155Z,23.40
2018-06-05T10:06:27.804Z,22.27
2018-06-05T10:08:55.479Z,19.10
2018-06-05T10:11:23.155Z,20.40
2018-06-05T10:13:50.786Z,19.03
2018-06-05T10:16:18.592Z,20.00
2018-06-05T10:18:46.258Z,19.67
2018-06-05T10:21:13.911Z,18.83
2018-06-05T10:23:41.560Z,19.00
2018-06-05T10:26:09.238Z,19.57
2018-06-05T10:28:36.904Z,21.37
2018-06-05T10:31:04.646Z,20.00
2018-06-05T10:33:32.332Z,22.47
2018-06-05T10:36:00.070Z,24.83
2018-06-05T10:38:27.728Z,27.27
2018-06-05T10:40:55.404Z,25.17
2018-06-05T10:43:23.089Z,24.70
2018-06-05T10:45:50.773Z,26.17
2018-06-05T10:48:18.600Z,30.97
2018-06-05T10:50:46.236Z,30.07
2018-06-05T10:53:13.891Z,26.83
2018-06-05T10:55:41.596Z,30.43
2018-06-05T10:58:09.572Z,27.10
2018-06-05T11:00:37.237Z,26.87
2018-06-05T11:03:04.900Z,27.33
2018-06-05T11:05:32.560Z,27.33
2018-06-05T11:08:00.202Z,26.53
2018-06-05T11:10:27.914Z,30.90
2018-06-05T11:12:55.572Z,26.53
2018-06-05T11:15:23.224Z,27.90
2018-06-05T11:17:50.896Z,29.57
2018-06-05T11:20:18.581Z,25.60
2018-06-05T11:22:46.264Z,28.73
2018-06-05T11:25:13.924Z,24.97
2018-06-05T11:27:41.586Z,25.67
2018-06-05T11:30:09.255Z,24.33
2018-06-05T11:32:36.900Z,25.27
2018-06-05T11:35:04.628Z,27.37
2018-06-05T11:37:32.278Z,24.00
2018-06-05T11:39:59.908Z,23.00
2018-06-05T11:42:27.564Z,25.27
2018-06-05T11:44:55.227Z,26.50
2018-06-05T11:47:22.887Z,27.20
2018-06-05T11:49:50.568Z,30.07
2018-06-05T11:52:18.214Z,28.10
2018-06-05T11:54:45.850Z,27.93
2018-06-05T11:57:13.494Z,33.00
2018-06-05T11:59:41.194Z,29.20
2018-06-05T12:02:08.942Z,25.23
2018-06-05T12:04:36.665Z,29.90
2018-06-05T12:07:04.348Z,31.17
2018-06-05T12:09:32.010Z,30.53
2018-06-05T12:11:59.669Z,32.63
2018-06-05T12:14:27.374Z,31.43
2018-06-05T12:16:55.052Z,32.80
2018-06-05T12:19:22.729Z,29.03
2018-06-05T12:21:50.372Z,30.73
2018-06-05T12:24:18.194Z,27.43
2018-06-05T12:26:47.017Z,30.73
2018-06-05T12:29:14.746Z,27.70
2018-06-05T12:31:42.486Z,28.23
2018-06-05T12:34:10.193Z,26.80
2018-06-05T12:36:38.045Z,25.93
2018-06-05T12:39:07.363Z,25.20
2018-06-05T12:41:35.082Z,24.33
2018-06-05T12:44:03.401Z,27.03
2018-06-05T12:46:31.105Z,26.27
2018-06-05T12:49:00.363Z,26.40
2018-06-05T12:51:28.831Z,24.90
2018-06-05T12:53:56.533Z,24.70
2018-06-05T12:56:24.354Z,26.43
2018-06-05T12:58:52.096Z,24.97
2018-06-05T13:01:19.860Z,24.27
2018-06-05T13:03:47.569Z,27.47
2018-06-05T13:06:15.234Z,26.30
2018-06-05T13:08:42.933Z,26.03
2018-06-05T13:11:10.586Z,26.73
2018-06-05T13:13:38.376Z,25.10
2018-06-05T13:16:06.037Z,26.40
2018-06-05T13:18:34.352Z,24.80
2018-06-05T13:21:02.136Z,24.07
2018-06-05T13:23:29.802Z,26.40
2018-06-05T13:25:57.462Z,26.00
2018-06-05T13:28:25.123Z,25.10
2018-06-05T13:30:52.780Z,25.63
2018-06-05T13:33:20.476Z,23.83
2018-06-05T13:35:48.149Z,25.03
2018-06-05T13:38:15.808Z,23.93
2018-06-05T13:40:43.526Z,26.83
2018-06-05T13:43:11.184Z,24.87
2018-06-05T13:45:38.860Z,24.83
2018-06-05T13:48:06.517Z,23.73
2018-06-05T13:50:34.180Z,28.57
2018-06-05T13:53:01.816Z,24.90
2018-06-05T13:55:29.540Z,25.03
2018-06-05T13:57:57.239Z,24.57
2018-06-05T14:00:24.911Z,24.23
2018-06-05T14:02:52.596Z,25.27
2018-06-05T14:05:22.957Z,24.37
2018-06-05T14:07:51.208Z,24.70
2018-06-05T14:10:19.506Z,25.13
2018-06-05T14:12:47.167Z,23.20
2018-06-05T14:15:17.605Z,24.30
2018-06-05T14:17:45.827Z,25.17
2018-06-05T14:20:13.484Z,25.57
2018-06-05T14:22:41.149Z,24.43
2018-06-05T14:25:08.872Z,23.93
2018-06-05T14:27:36.437Z,23.47
2018-06-05T14:30:04.748Z,24.33
2018-06-05T14:32:32.430Z,24.10
2018-06-05T14:35:00.110Z,24.87
2018-06-05T14:37:27.809Z,25.43
2018-06-05T14:39:56.102Z,25.63
2018-06-05T14:42:23.898Z,24.60
2018-06-05T14:44:51.597Z,24.60
2018-06-05T14:47:19.252Z,24.53
2018-06-05T14:49:46.896Z,24.07
2018-06-05T14:52:14.558Z,26.80
2018-06-05T14:54:42.245Z,25.90
2018-06-05T14:57:09.903Z,25.27
2018-06-05T14:59:37.549Z,24.53
2018-06-05T15:02:05.393Z,24.63
2018-06-05T15:04:33.104Z,25.60
2018-06-05T15:07:00.790Z,27.63
2018-06-05T15:09:28.488Z,26.07
2018-06-05T15:11:56.046Z,26.13
2018-06-05T15:14:23.729Z,27.17
2018-06-05T15:16:51.394Z,28.40
2018-06-05T15:19:19.080Z,24.13
2018-06-05T15:21:46.788Z,24.63
2018-06-05T15:24:14.480Z,25.43
2018-06-05T15:26:44.426Z,25.30
2018-06-05T15:29:12.463Z,25.50
2018-06-05T15:31:40.448Z,26.63
2018-06-05T15:34:08.572Z,26.30
2018-06-05T15:36:36.924Z,26.67
2018-06-05T15:39:07.286Z,27.73
2018-06-05T15:41:35.100Z,27.47
2018-06-05T15:44:03.677Z,26.13
2018-06-05T15:46:31.508Z,26.97
2018-06-05T15:48:59.356Z,25.63
2018-06-05T15:51:27.063Z,26.37
2018-06-05T15:53:54.801Z,26.17
2018-06-05T15:56:22.518Z,24.23
2018-06-05T15:58:50.180Z,29.67
2018-06-05T16:01:17.907Z,25.27
2018-06-05T16:03:45.618Z,26.27
2018-06-05T16:06:13.332Z,24.30
2018-06-05T16:08:41.030Z,23.93
2018-06-05T16:11:08.751Z,24.10
2018-06-05T16:13:36.454Z,22.77
2018-06-05T16:16:04.801Z,25.17
2018-06-05T16:18:32.487Z,23.67
2018-06-05T16:21:00.180Z,24.23
2018-06-05T16:23:27.852Z,22.47
2018-06-05T16:25:55.537Z,22.97
2018-06-05T16:28:23.226Z,23.87
2018-06-05T16:30:50.911Z,23.83
2018-06-05T16:33:18.599Z,23.30
2018-06-05T16:35:46.346Z,23.23
2018-06-05T16:38:14.062Z,21.67
2018-06-05T16:40:41.754Z,23.47
2018-06-05T16:43:09.638Z,22.87
2018-06-05T16:45:37.335Z,24.03
2018-06-05T16:48:07.065Z,23.53
2018-06-05T16:50:34.794Z,24.13
2018-06-05T16:53:02.489Z,25.27
2018-06-05T16:55:30.190Z,24.87
2018-06-05T16:57:57.865Z,23.33
2018-06-05T17:00:25.561Z,22.53
2018-06-05T17:02:53.238Z,25.60
2018-06-05T17:05:20.951Z,24.73
2018-06-05T17:07:49.748Z,23.43
2018-06-05T17:10:17.448Z,24.47
2018-06-05T17:12:46.963Z,24.77
2018-06-05T17:15:14.800Z,23.63
2018-06-05T17:17:42.521Z,23.30
2018-06-05T17:20:10.251Z,25.07
2018-06-05T17:22:39.362Z,26.73
2018-06-05T17:25:07.073Z,22.77
2018-06-05T17:27:41.718Z,26.07
2018-06-05T17:30:09.428Z,24.33
2018-06-05T17:32:41.100Z,23.43
2018-06-05T17:35:09.143Z,24.23
2018-06-05T17:37:36.925Z,24.53
2018-06-05T17:40:04.691Z,23.13
2018-06-05T17:42:32.638Z,24.37
2018-06-05T17:45:00.350Z,21.60
2018-06-05T17:47:28.123Z,21.77
2018-06-05T17:49:55.874Z,24.10
2018-06-05T17:52:23.685Z,21.87
2018-06-05T17:54:51.403Z,21.43
2018-06-05T17:57:19.151Z,21.20
2018-06-05T17:59:46.910Z,22.77
2018-06-05T18:02:14.733Z,21.43
2018-06-05T18:04:42.521Z,22.40
2018-06-05T18:07:10.337Z,21.17
2018-06-05T18:09:39.057Z,21.80
2018-06-05T18:12:06.775Z,20.87
2018-06-05T18:14:34.539Z,20.30
2018-06-05T18:17:04.517Z,19.70
2018-06-05T18:19:32.398Z,21.03
2018-06-05T18:22:00.145Z,21.43
2018-06-05T18:24:28.008Z,20.00
2018-06-05T18:26:55.957Z,19.73
2018-06-05T18:29:23.700Z,22.70
2018-06-05T18:31:51.411Z,19.73
2018-06-05T18:34:19.536Z,19.53
2018-06-05T18:36:47.435Z,19.30
2018-06-05T18:39:15.017Z,20.30
2018-06-05T18:41:42.772Z,20.40
2018-06-05T18:44:10.673Z,19.77
2018-06-05T18:46:41.423Z,21.70
2018-06-05T18:49:09.211Z,19.00
2018-06-05T18:51:36.999Z,19.23
2018-06-05T18:54:04.880Z,20.17
2018-06-05T18:56:32.819Z,20.80
2018-06-05T18:59:01.261Z,19.53
2018-06-05T19:01:29.045Z,20.50
2018-06-05T19:03:56.847Z,22.47
2018-06-05T19:06:24.593Z,20.43
2018-06-05T19:08:53.131Z,20.47
2018-06-05T19:11:20.834Z,19.57
2018-06-05T19:13:48.625Z,20.00
2018-06-05T19:16:16.328Z,21.20
2018-06-05T19:18:44.048Z,19.70
2018-06-05T19:21:11.826Z,23.03
2018-06-05T19:23:39.715Z,22.47
2018-06-05T19:26:07.509Z,19.70
2018-06-05T19:28:35.238Z,20.73
2018-06-05T19:31:03.659Z,20.10
2018-06-05T19:33:32.139Z,21.23
2018-06-05T19:35:59.891Z,20.20
2018-06-05T19:38:28.214Z,20.03
2018-06-05T19:40:55.993Z,19.70
2018-06-05T19:43:24.081Z,21.60
2018-06-05T19:45:51.807Z,20.73
2018-06-05T19:48:19.924Z,19.60
2018-06-05T19:50:47.729Z,19.07
2018-06-05T19:53:15.471Z,20.03
2018-06-05T19:55:43.284Z,19.77
2018-06-05T19:58:11.601Z,20.53
2018-06-05T20:00:39.702Z,19.60
2018-06-05T20:03:08.208Z,22.80
2018-06-05T20:05:36.094Z,20.23
2018-06-05T20:08:03.921Z,21.20
2018-06-05T20:10:31.661Z,20.40
2018-06-05T20:12:59.449Z,20.67
2018-06-05T20:15:27.172Z,19.87
2018-06-05T20:17:54.922Z,23.07
2018-06-05T20:20:22.715Z,21.90
2018-06-05T20:22:50.412Z,22.77
2018-06-05T20:25:18.146Z,23.67
2018-06-05T20:27:46.405Z,21.13
2018-06-05T20:30:14.109Z,20.47
2018-06-05T20:32:41.924Z,20.37
2018-06-05T20:35:09.631Z,19.63
2018-06-05T20:37:37.532Z,20.67
2018-06-05T20:40:05.284Z,20.23
2018-06-05T20:42:33.050Z,20.90
2018-06-05T20:45:00.934Z,22.77
2018-06-05T20:47:33.431Z,23.20
2018-06-05T20:50:01.355Z,19.27
2018-06-05T20:52:29.150Z,21.07
2018-06-05T20:54:57.020Z,23.30
2018-06-05T20:57:24.880Z,21.57
2018-06-05T20:59:52.992Z,24.70
2018-06-05T21:02:20.744Z,23.53
2018-06-05T21:04:50.092Z,26.80
2018-06-05T21:07:17.723Z,23.80
2018-06-05T21:09:45.478Z,23.50
2018-06-05T21:12:13.780Z,23.83
2018-06-05T21:14:41.528Z,24.63
2018-06-05T21:17:09.278Z,23.67
2018-06-05T21:19:37.036Z,24.87
2018-06-05T21:22:05.027Z,23.50
2018-06-05T21:24:32.800Z,23.40
2018-06-05T21:27:00.569Z,24.33
2018-06-05T21:29:28.316Z,24.30
2018-06-05T21:31:56.394Z,25.00
2018-06-05T21:34:24.140Z,20.10
2018-06-05T21:36:51.935Z,23.13
2018-06-05T21:39:19.670Z,21.33
2018-06-05T21:41:47.492Z,20.93
2018-06-05T21:44:18.571Z,22.13
2018-06-05T21:46:46.424Z,23.80
2018-06-05T21:49:14.226Z,23.10
2018-06-05T21:51:42.048Z,19.90
2018-06-05T21:54:10.005Z,19.80
2018-06-05T21:56:38.566Z,22.83
2018-06-05T21:59:06.538Z,20.00
2018-06-05T22:01:34.285Z,21.10
2018-06-05T22:04:02.054Z,19.43
2018-06-05T22:06:30.460Z,19.90
2018-06-05T22:08:59.610Z,20.00
2018-06-05T22:11:28.206Z,19.97
2018-06-05T22:13:56.628Z,21.07
2018-06-05T22:16:24.852Z,24.90
2018-06-05T22:18:52.642Z,22.97
2018-06-05T22:21:20.438Z,23.27
2018-06-05T22:23:48.340Z,27.17
2018-06-05T22:26:16.104Z,22.60
2018-06-05T22:28:44.118Z,24.93
2018-06-05T22:31:11.908Z,22.80
2018-06-05T22:33:40.693Z,20.40
2018-06-05T22:36:09.472Z,20.57
2018-06-05T22:38:37.438Z,22.83
2018-06-05T22:41:07.057Z,20.13
2018-06-05T22:43:34.839Z,22.57
2018-06-05T22:46:03.672Z,25.63
2018-06-05T22:58:12.649Z,26.40
2018-06-05T23:00:41.250Z,25.97
2018-06-05T23:03:09.053Z,25.73
2018-06-05T23:05:37.040Z,24.57
2018-06-05T23:08:04.726Z,27.93
2018-06-05T23:10:32.334Z,20.67
2018-06-05T23:13:01.106Z,22.53
2018-06-05T23:15:28.864Z,23.93
2018-06-05T23:17:56.752Z,25.70
2018-06-05T23:20:24.711Z,24.43
2018-06-05T23:22:52.698Z,24.67
2018-06-05T23:25:20.574Z,21.77
2018-06-05T23:27:48.420Z,20.67
2018-06-05T23:30:16.890Z,23.63
2018-06-05T23:42:29.760Z,26.83
2018-06-05T23:44:58.182Z,25.53
2018-06-05T23:47:26.204Z,23.23
2018-06-05T23:49:54.112Z,23.67
2018-06-05T23:52:22.226Z,26.93
2018-06-05T23:54:50.410Z,24.03
2018-06-05T23:57:18.554Z,23.87
2018-06-05T23:59:48.236Z,27.17
